Jijel Ferhat Abbas Airport

DAAV · Jijel, 阿尔及利亚

罗盘
风向 的 风向 的 风向 到 风向 030° Jijel Ferhat Abbas Airport 17/35
风: 3 kt, 1 beaufort

2 kt

2 kt
改变
0 ft 1.000 2.000 3.000 4.000 5.000
Cloud Cloud
FEW 2.000
METAR DAAV 232000Z 03003KT 360V070 9999 FEW020 23/19 Q1014

METAR Jijel Ferhat Abbas Airport - DAAV/GJL

Jijel Ferhat Abbas Airport是,阿尔及利亚中的中型机场。 该机场位于纬度36,79510和经度5,87361。 该机场有一条跑道: 17/35. 本场的ICAO机场代码为DAAV。 该机场的IATA代码为GJL。 机场在Alger FIR中。

该航空气象观测是针对Jijel Ferhat Abbas Airport在2024年6月23日 21:00, 当地时间进行的。

机场观察

风向为030°,速度为3 kt。 风向在360°和070°之间变化。

可见度为10 km 或者更多。

有几云在2.000 ft的高度。 没有观察到天花板。

温度和风寒是23 °C。 露点为19 °C,相对湿度为78%。 海平面上的气压为1014 hPa (QNH)。

白天

今天,太阳从05:18升起,在19:59降落。 这适用于Jijel Ferhat Abbas Airport,世界夏令时可能有所不同。 当地时间与世界标准时间之间的时差为+1 小时。 夏令时目前正在进行中。

公司介绍

我们没有关于这个机场的公司信息。

体会

到Vliegles.nl去找飞行课程,跳伞和其他飞行体验。 浏览页面,了解Jijel Ferhat Abbas Airport附近所有可用的活动。 你也可以使用搜索功能来寻找你所在地附近的特定飞行课程、跳伞或其他飞行体验。

跑道

Id 标题 侧风 逆风 侧风 %
17/35 170°-350° 2 kt 2 kt 64 %

逆风成分最大的方向会被突出显示,并用于横风计算。 这并不一定意味着这个方向在使用。

乌云

2.000 ft FEW 几云

温度 & 天气

温度 23 °C
露点 19 °C
相对湿度 78%
Kp-index 3 (0-9)

白天

日出
05:18 (7:48)
中午
12:38
日落
19:59

小工具

你想在你的网站上有一个关于Jijel Ferhat Abbas Airport的当前航空天气(METAR)的小部件吗?

显示HTML代码
报告变更